createdAt,value
2023-02-18T00:01:30.468Z,10.20
2023-02-18T00:04:01.471Z,10.20
2023-02-18T00:06:36.351Z,10.20
2023-02-18T00:09:07.044Z,10.20
2023-02-18T00:11:37.969Z,10.20
2023-02-18T00:14:15.616Z,10.30
2023-02-18T00:16:46.100Z,10.20
2023-02-18T00:19:20.634Z,10.20
2023-02-18T00:21:49.081Z,10.20
2023-02-18T00:24:18.024Z,10.20
2023-02-18T00:26:46.610Z,10.20
2023-02-18T00:29:14.717Z,10.20
2023-02-18T00:31:43.687Z,10.30
2023-02-18T00:34:14.376Z,10.20
2023-02-18T00:36:43.340Z,10.30
2023-02-18T00:39:13.176Z,10.20
2023-02-18T00:41:43.243Z,10.20
2023-02-18T00:44:13.049Z,10.20
2023-02-18T00:46:42.523Z,10.20
2023-02-18T00:49:10.737Z,10.20
2023-02-18T00:51:38.478Z,10.20
2023-02-18T00:54:06.452Z,10.20
2023-02-18T00:56:34.711Z,10.30
2023-02-18T00:59:03.680Z,10.30
2023-02-18T01:01:31.760Z,10.30
2023-02-18T01:03:59.541Z,10.30
2023-02-18T01:06:29.626Z,10.30
2023-02-18T01:09:00.194Z,10.30
2023-02-18T01:11:30.840Z,10.30
2023-02-18T01:13:58.806Z,10.30
2023-02-18T01:16:27.197Z,10.30
2023-02-18T01:18:55.175Z,10.30
2023-02-18T01:21:23.012Z,10.30
2023-02-18T01:23:51.033Z,10.30
2023-02-18T01:26:18.764Z,10.30
2023-02-18T01:28:46.604Z,10.30
2023-02-18T01:31:16.591Z,10.30
2023-02-18T01:33:45.103Z,10.30
2023-02-18T01:36:13.651Z,10.30
2023-02-18T01:38:42.386Z,10.30
2023-02-18T01:41:11.688Z,10.30
2023-02-18T01:43:40.272Z,10.30
2023-02-18T01:46:22.207Z,10.30
2023-02-18T01:49:01.621Z,10.30
2023-02-18T01:51:50.487Z,10.30
2023-02-18T01:54:40.080Z,10.30
2023-02-18T01:57:22.024Z,10.30
2023-02-18T02:00:08.530Z,10.30
2023-02-18T02:02:49.486Z,10.30
2023-02-18T02:05:18.746Z,10.30
2023-02-18T02:07:52.222Z,10.30
2023-02-18T02:10:21.269Z,10.30
2023-02-18T02:13:13.919Z,10.30
2023-02-18T02:16:37.197Z,10.30
2023-02-18T02:20:08.628Z,10.30
2023-02-18T02:23:40.978Z,10.30
2023-02-18T02:27:07.046Z,10.40
2023-02-18T02:30:27.118Z,10.40
2023-02-18T02:33:37.475Z,10.30
2023-02-18T02:36:50.075Z,10.40
2023-02-18T02:40:27.500Z,10.40
2023-02-18T02:43:52.295Z,10.40
2023-02-18T02:46:38.900Z,10.40
2023-02-18T02:50:00.924Z,10.30
2023-02-18T02:52:55.861Z,10.30
2023-02-18T02:55:24.137Z,10.40
2023-02-18T02:57:57.325Z,10.30
2023-02-18T03:01:15.142Z,10.40
2023-02-18T03:04:32.178Z,10.30
2023-02-18T03:07:35.056Z,10.30
2023-02-18T03:11:14.723Z,10.30
2023-02-18T03:14:28.166Z,10.40
2023-02-18T03:17:37.593Z,10.30
2023-02-18T03:21:00.611Z,10.30
2023-02-18T03:23:45.390Z,10.40
2023-02-18T03:26:18.821Z,10.40
2023-02-18T03:28:53.438Z,10.40
2023-02-18T03:31:29.841Z,10.40
2023-02-18T03:34:16.699Z,10.40
2023-02-18T03:36:46.273Z,10.40
2023-02-18T03:39:24.029Z,10.30
2023-02-18T03:41:52.058Z,10.40
2023-02-18T03:44:19.963Z,10.30
2023-02-18T03:46:47.772Z,10.30
2023-02-18T03:49:16.783Z,10.30
2023-02-18T03:51:45.160Z,10.30
2023-02-18T03:54:14.750Z,10.30
2023-02-18T03:56:44.625Z,10.40
2023-02-18T03:59:14.199Z,10.30
2023-02-18T04:01:42.168Z,10.40
2023-02-18T04:04:10.155Z,10.40
2023-02-18T04:06:38.105Z,10.40
2023-02-18T04:09:09.134Z,10.40
2023-02-18T04:11:40.841Z,10.40
2023-02-18T04:14:10.303Z,10.40
2023-02-18T04:16:38.244Z,10.50
2023-02-18T04:19:06.169Z,10.50
2023-02-18T04:21:35.170Z,10.40
2023-02-18T04:24:03.445Z,10.40
2023-02-18T04:26:31.449Z,10.40
2023-02-18T04:28:59.300Z,10.40
2023-02-18T04:31:27.918Z,10.40
2023-02-18T04:33:55.984Z,10.40
2023-02-18T04:36:23.830Z,10.40
2023-02-18T04:38:51.798Z,10.50
2023-02-18T04:41:19.816Z,10.40
2023-02-18T04:43:48.296Z,10.50
2023-02-18T04:46:16.091Z,10.50
2023-02-18T04:48:44.080Z,10.50
2023-02-18T04:51:12.170Z,10.50
2023-02-18T04:53:39.998Z,10.40
2023-02-18T04:56:08.102Z,10.40
2023-02-18T04:58:36.343Z,10.40
2023-02-18T05:01:06.231Z,10.40
2023-02-18T05:03:34.434Z,10.40
2023-02-18T05:06:02.274Z,10.50
2023-02-18T05:08:30.346Z,10.40
2023-02-18T05:10:58.241Z,10.40
2023-02-18T05:13:26.361Z,10.40
2023-02-18T05:15:54.177Z,10.30
2023-02-18T05:18:22.073Z,10.30
2023-02-18T05:20:50.020Z,10.30
2023-02-18T05:23:20.319Z,10.30
2023-02-18T05:25:48.906Z,10.30
2023-02-18T05:28:16.886Z,10.20
2023-02-18T05:30:44.812Z,10.20
2023-02-18T05:33:12.878Z,10.30
2023-02-18T05:35:40.785Z,10.20
2023-02-18T05:38:08.747Z,10.20
2023-02-18T05:40:36.805Z,10.20
2023-02-18T05:43:04.828Z,10.20
2023-02-18T05:45:32.900Z,10.20
2023-02-18T05:48:00.704Z,10.20
2023-02-18T05:50:28.812Z,10.20
2023-02-18T05:52:56.899Z,10.20
2023-02-18T05:55:24.695Z,10.20
2023-02-18T05:57:53.147Z,10.10
2023-02-18T06:00:21.488Z,10.10
2023-02-18T06:02:49.484Z,10.10
2023-02-18T06:05:17.618Z,10.10
2023-02-18T06:07:45.442Z,10.10
2023-02-18T06:10:13.615Z,10.10
2023-02-18T06:12:41.531Z,10.10
2023-02-18T06:15:09.883Z,10.10
2023-02-18T06:17:37.764Z,10.10
2023-02-18T06:20:06.847Z,10.10
2023-02-18T06:22:34.627Z,10.00
2023-02-18T06:25:02.370Z,10.10
2023-02-18T06:27:30.294Z,10.10
2023-02-18T06:29:58.247Z,10.10
2023-02-18T06:32:26.081Z,10.00
2023-02-18T06:34:54.094Z,10.10
2023-02-18T06:37:22.064Z,10.10
2023-02-18T06:39:49.969Z,10.10
2023-02-18T06:42:17.958Z,10.10
2023-02-18T06:44:45.643Z,10.10
2023-02-18T06:47:13.569Z,10.00
2023-02-18T06:49:41.458Z,10.00
2023-02-18T06:52:09.276Z,10.10
2023-02-18T06:54:37.120Z,10.00
2023-02-18T06:57:05.017Z,10.10
2023-02-18T06:59:32.898Z,10.00
2023-02-18T07:02:00.784Z,10.00
2023-02-18T07:04:28.627Z,10.00
2023-02-18T07:06:56.569Z,10.00
2023-02-18T07:09:24.704Z,9.90
2023-02-18T07:11:52.875Z,10.00
2023-02-18T07:14:20.795Z,10.00
2023-02-18T07:16:48.524Z,10.00
2023-02-18T07:19:17.188Z,10.00
2023-02-18T07:21:44.932Z,10.00
2023-02-18T07:24:13.039Z,10.00
2023-02-18T07:26:41.271Z,10.00
2023-02-18T07:29:09.258Z,10.00
2023-02-18T07:31:38.826Z,9.90
2023-02-18T07:34:06.897Z,9.90
2023-02-18T07:36:34.762Z,10.00
2023-02-18T07:39:02.802Z,10.00
2023-02-18T07:41:30.666Z,10.00
2023-02-18T07:43:58.554Z,9.90
2023-02-18T07:46:27.615Z,9.90
2023-02-18T07:48:57.356Z,9.90
2023-02-18T07:51:25.174Z,9.90
2023-02-18T07:53:52.928Z,9.90
2023-02-18T07:56:20.768Z,9.90
2023-02-18T07:58:48.452Z,9.90
2023-02-18T08:01:17.237Z,9.90
2023-02-18T08:03:45.292Z,9.90
2023-02-18T08:06:41.169Z,9.90
2023-02-18T08:09:09.929Z,9.90
2023-02-18T08:11:38.313Z,9.90
2023-02-18T08:14:07.382Z,9.90
2023-02-18T08:16:38.901Z,9.90
2023-02-18T08:19:11.129Z,10.00
2023-02-18T08:21:43.431Z,10.00
2023-02-18T08:24:12.091Z,10.00
2023-02-18T08:26:58.242Z,9.90
2023-02-18T08:29:30.279Z,9.90
2023-02-18T08:31:59.650Z,9.90
2023-02-18T08:34:31.232Z,9.80
2023-02-18T08:37:02.581Z,9.80
2023-02-18T08:39:38.529Z,9.80
2023-02-18T08:42:07.712Z,9.80
2023-02-18T08:44:35.591Z,9.70
2023-02-18T08:47:03.851Z,9.70
2023-02-18T08:49:54.431Z,9.60
2023-02-18T08:52:23.382Z,9.70
2023-02-18T08:54:51.884Z,9.70
2023-02-18T08:57:19.734Z,9.60
2023-02-18T08:59:47.690Z,9.60
2023-02-18T09:02:16.492Z,9.60
2023-02-18T09:04:45.000Z,9.50
2023-02-18T09:07:12.869Z,9.50
2023-02-18T09:09:42.093Z,9.40
2023-02-18T09:12:10.085Z,9.40
2023-02-18T09:14:37.968Z,9.40
2023-02-18T09:17:05.823Z,9.30
2023-02-18T09:19:33.625Z,9.30
2023-02-18T09:22:03.104Z,9.40
2023-02-18T09:24:31.188Z,9.30
2023-02-18T09:27:00.431Z,9.40
2023-02-18T09:29:28.556Z,9.40
2023-02-18T09:31:56.341Z,9.40
2023-02-18T09:34:24.062Z,9.30
2023-02-18T09:36:51.927Z,9.30
2023-02-18T09:39:21.325Z,9.30
2023-02-18T09:42:00.236Z,9.30
2023-02-18T09:44:53.411Z,9.30
2023-02-18T09:47:45.062Z,9.30
2023-02-18T09:50:33.845Z,9.30
2023-02-18T09:53:05.185Z,9.40
2023-02-18T09:55:41.381Z,9.30
2023-02-18T09:58:29.823Z,9.40
2023-02-18T10:01:30.322Z,9.50
2023-02-18T10:04:13.216Z,9.60
2023-02-18T10:06:41.233Z,9.70
2023-02-18T10:09:28.729Z,9.70
2023-02-18T10:12:19.217Z,9.70
2023-02-18T10:15:01.504Z,9.70
2023-02-18T10:17:34.580Z,9.60
2023-02-18T10:20:08.089Z,9.50
2023-02-18T10:22:39.622Z,9.50
2023-02-18T10:25:09.562Z,9.50
2023-02-18T10:27:41.399Z,9.60
2023-02-18T10:30:38.106Z,9.60
2023-02-18T10:33:55.069Z,9.50
2023-02-18T10:36:39.715Z,9.60
2023-02-18T10:39:42.801Z,9.60
2023-02-18T10:42:40.634Z,9.60
2023-02-18T10:46:11.610Z,9.60
2023-02-18T10:49:57.275Z,9.60
2023-02-18T10:52:36.505Z,9.60
2023-02-18T10:55:18.618Z,9.60
2023-02-18T10:57:55.502Z,9.60
2023-02-18T11:00:33.432Z,9.60
2023-02-18T11:03:40.946Z,9.70
2023-02-18T11:06:42.890Z,9.70
2023-02-18T11:09:47.964Z,9.70
2023-02-18T11:12:25.629Z,9.60
2023-02-18T11:15:28.089Z,9.50
2023-02-18T11:18:26.398Z,9.50
2023-02-18T11:21:06.204Z,9.50
2023-02-18T11:23:52.547Z,9.50
2023-02-18T11:26:36.493Z,9.50
2023-02-18T11:29:24.626Z,9.40
2023-02-18T11:31:57.554Z,9.40
2023-02-18T11:34:33.732Z,9.40
2023-02-18T11:37:21.992Z,9.50
2023-02-18T11:39:56.695Z,9.50
2023-02-18T11:42:28.036Z,9.40
2023-02-18T11:45:03.306Z,9.50
2023-02-18T11:47:38.178Z,9.50
2023-02-18T11:50:22.342Z,9.50
2023-02-18T11:52:52.479Z,9.50
2023-02-18T11:55:32.244Z,9.60
2023-02-18T11:58:07.274Z,9.50
2023-02-18T12:00:48.188Z,9.40
2023-02-18T12:03:54.092Z,9.40
2023-02-18T12:06:39.630Z,9.50
2023-02-18T12:09:37.770Z,9.60
2023-02-18T12:12:47.710Z,9.50
2023-02-18T12:15:34.624Z,9.50
2023-02-18T12:18:38.672Z,9.50
2023-02-18T12:21:48.107Z,9.40
2023-02-18T12:25:06.637Z,9.50
2023-02-18T12:28:29.755Z,9.60
2023-02-18T12:31:26.611Z,9.60
2023-02-18T12:35:00.820Z,9.70
2023-02-18T12:38:44.630Z,9.70
2023-02-18T12:42:05.547Z,9.50
2023-02-18T12:44:52.613Z,9.60
2023-02-18T12:48:16.761Z,9.60
2023-02-18T12:51:30.587Z,9.60
2023-02-18T12:54:29.449Z,9.60
2023-02-18T12:57:20.296Z,9.60
2023-02-18T13:00:47.514Z,9.60
2023-02-18T13:04:29.334Z,9.60
2023-02-18T13:07:55.083Z,9.50
2023-02-18T13:11:09.580Z,9.60
2023-02-18T13:14:25.994Z,9.70
2023-02-18T13:17:01.693Z,9.70
2023-02-18T13:20:01.739Z,9.70
2023-02-18T13:22:33.361Z,9.70
2023-02-18T13:25:01.735Z,9.70
2023-02-18T13:28:32.885Z,9.80
2023-02-18T13:31:46.873Z,9.80
2023-02-18T13:35:02.970Z,9.80
2023-02-18T13:38:20.087Z,9.80
2023-02-18T13:40:49.676Z,9.80
2023-02-18T13:43:36.343Z,9.80
2023-02-18T13:46:25.275Z,9.80
2023-02-18T13:49:13.670Z,9.80
2023-02-18T13:51:54.694Z,9.90
2023-02-18T13:54:50.549Z,9.90
2023-02-18T13:57:28.975Z,9.90
2023-02-18T14:00:22.277Z,9.90
2023-02-18T14:03:33.698Z,10.00
2023-02-18T14:06:02.346Z,10.00
2023-02-18T14:08:40.503Z,10.00
2023-02-18T14:11:16.964Z,10.00
2023-02-18T14:14:31.854Z,10.00
2023-02-18T14:17:20.662Z,10.10
2023-02-18T14:20:20.529Z,10.00
2023-02-18T14:22:53.542Z,10.00
2023-02-18T14:25:21.465Z,10.10
2023-02-18T14:27:55.191Z,10.20
2023-02-18T14:30:22.997Z,10.20
2023-02-18T14:32:59.096Z,10.20
2023-02-18T14:35:56.540Z,10.10
2023-02-18T14:38:43.922Z,10.10
2023-02-18T14:42:08.120Z,10.10
2023-02-18T14:45:47.459Z,10.10
2023-02-18T14:49:17.058Z,10.10
2023-02-18T14:51:49.716Z,10.20
2023-02-18T14:54:25.568Z,10.20
2023-02-18T14:57:05.565Z,10.20
2023-02-18T14:59:42.055Z,10.20
2023-02-18T15:02:31.017Z,10.20
2023-02-18T15:05:30.972Z,10.20
2023-02-18T15:08:14.735Z,10.30
2023-02-18T15:11:07.800Z,10.30
2023-02-18T15:13:44.452Z,10.30
2023-02-18T15:16:34.430Z,10.20
2023-02-18T15:19:15.407Z,10.20
2023-02-18T15:21:51.992Z,10.30
2023-02-18T15:24:38.953Z,10.30
2023-02-18T15:27:40.253Z,10.40
2023-02-18T15:30:33.779Z,10.40
2023-02-18T15:33:02.596Z,10.40
2023-02-18T15:35:34.018Z,10.40
2023-02-18T15:38:04.653Z,10.40
2023-02-18T15:40:40.604Z,10.50
2023-02-18T15:43:09.459Z,10.50
2023-02-18T15:45:47.548Z,10.40
2023-02-18T15:48:45.554Z,10.40
2023-02-18T15:51:22.782Z,10.40
2023-02-18T15:54:02.343Z,10.40
2023-02-18T15:56:41.702Z,10.40
2023-02-18T15:59:32.696Z,10.40
2023-02-18T16:02:28.059Z,10.40
2023-02-18T16:05:05.126Z,10.50
2023-02-18T16:08:00.323Z,10.50
2023-02-18T16:10:36.873Z,10.50
2023-02-18T16:13:06.217Z,10.40
2023-02-18T16:15:42.961Z,10.40
2023-02-18T16:18:31.288Z,10.40
2023-02-18T16:21:48.428Z,10.30
2023-02-18T16:24:33.530Z,10.30
2023-02-18T16:27:03.521Z,10.40
2023-02-18T16:29:42.739Z,10.40
2023-02-18T16:32:11.099Z,10.40
2023-02-18T16:34:38.881Z,10.40
2023-02-18T16:37:24.992Z,10.40
2023-02-18T16:39:55.396Z,10.40
2023-02-18T16:42:23.361Z,10.30
2023-02-18T16:44:52.188Z,10.30
2023-02-18T16:47:21.423Z,10.30
2023-02-18T16:49:51.736Z,10.30
2023-02-18T16:52:21.703Z,10.30
2023-02-18T16:54:50.557Z,10.30
2023-02-18T16:57:18.579Z,10.30
2023-02-18T16:59:46.849Z,10.30
2023-02-18T17:02:22.977Z,10.30
2023-02-18T17:04:54.642Z,10.40
2023-02-18T17:07:23.782Z,10.30
2023-02-18T17:09:51.500Z,10.30
2023-02-18T17:12:19.389Z,10.30
2023-02-18T17:14:47.330Z,10.30
2023-02-18T17:17:15.066Z,10.20
2023-02-18T17:19:42.744Z,10.20
2023-02-18T17:22:15.546Z,10.20
2023-02-18T17:24:43.499Z,10.10
2023-02-18T17:27:11.791Z,10.10
2023-02-18T17:29:39.533Z,10.10
2023-02-18T17:32:09.417Z,10.10
2023-02-18T17:34:41.094Z,10.10
2023-02-18T17:37:14.236Z,10.10
2023-02-18T17:39:42.114Z,10.00
2023-02-18T17:42:12.842Z,10.00
2023-02-18T17:44:41.641Z,10.10
2023-02-18T17:47:09.458Z,10.10
2023-02-18T17:49:37.406Z,10.10
2023-02-18T17:52:06.040Z,10.10
2023-02-18T17:54:33.740Z,10.20
2023-02-18T17:57:01.516Z,10.20
2023-02-18T17:59:30.718Z,10.20
2023-02-18T18:01:58.810Z,10.20
2023-02-18T18:04:27.077Z,10.20
2023-02-18T18:06:55.584Z,10.20
2023-02-18T18:09:23.394Z,10.30
2023-02-18T18:11:51.604Z,10.20
2023-02-18T18:14:19.367Z,10.20
2023-02-18T18:16:47.167Z,10.20
2023-02-18T18:19:15.300Z,10.20
2023-02-18T18:21:43.187Z,10.10
2023-02-18T18:24:13.302Z,10.10
2023-02-18T18:26:41.380Z,10.10
2023-02-18T18:29:10.416Z,10.10
2023-02-18T18:31:39.016Z,10.10
2023-02-18T18:34:07.328Z,10.10
2023-02-18T18:36:35.300Z,10.10
2023-02-18T18:39:04.047Z,10.10
2023-02-18T18:41:32.147Z,10.10
2023-02-18T18:44:00.101Z,10.20
2023-02-18T18:46:28.163Z,10.20
2023-02-18T18:49:00.258Z,10.20
2023-02-18T18:51:33.711Z,10.20
2023-02-18T18:54:01.506Z,10.20
2023-02-18T18:56:29.401Z,10.20
2023-02-18T18:58:57.501Z,10.20
2023-02-18T19:01:27.666Z,10.20
2023-02-18T19:03:56.102Z,10.20
2023-02-18T19:06:23.980Z,10.30
2023-02-18T19:08:51.823Z,10.20
2023-02-18T19:11:19.575Z,10.20
2023-02-18T19:13:47.694Z,10.20
2023-02-18T19:16:34.871Z,10.20
2023-02-18T19:19:02.942Z,10.10
2023-02-18T19:21:31.850Z,10.20
2023-02-18T19:24:00.079Z,10.20
2023-02-18T19:26:28.287Z,10.20
2023-02-18T19:28:56.088Z,10.30
2023-02-18T19:31:24.627Z,10.30
2023-02-18T19:33:53.544Z,10.20
2023-02-18T19:36:21.608Z,10.20
2023-02-18T19:38:51.523Z,10.20
2023-02-18T19:41:19.571Z,10.20
2023-02-18T19:43:47.532Z,10.20
2023-02-18T19:46:19.146Z,10.20
2023-02-18T19:48:52.811Z,10.20
2023-02-18T19:51:21.900Z,10.20
2023-02-18T19:53:49.963Z,10.30
2023-02-18T19:56:17.709Z,10.20
2023-02-18T19:58:45.528Z,10.20
2023-02-18T20:01:18.570Z,10.20
2023-02-18T20:03:47.464Z,10.10
2023-02-18T20:06:22.339Z,10.10
2023-02-18T20:08:50.255Z,10.10
2023-02-18T20:11:18.217Z,10.10
2023-02-18T20:13:48.378Z,10.20
2023-02-18T20:16:16.274Z,10.10
2023-02-18T20:18:44.150Z,10.10
2023-02-18T20:21:13.107Z,10.10
2023-02-18T20:23:42.102Z,10.10
2023-02-18T20:26:15.157Z,10.10
2023-02-18T20:28:46.307Z,10.00
2023-02-18T20:31:16.488Z,10.10
2023-02-18T20:33:45.204Z,10.10
2023-02-18T20:36:15.069Z,10.10
2023-02-18T20:38:43.034Z,10.10
2023-02-18T20:41:15.586Z,10.10
2023-02-18T20:43:44.152Z,10.10
2023-02-18T20:46:22.417Z,10.10
2023-02-18T20:48:50.658Z,10.10
2023-02-18T20:51:23.360Z,10.10
2023-02-18T20:53:52.409Z,10.10
2023-02-18T20:56:22.496Z,10.10
2023-02-18T20:58:51.404Z,10.10
2023-02-18T21:01:20.625Z,10.10
2023-02-18T21:03:50.749Z,10.10
2023-02-18T21:06:24.792Z,10.20
2023-02-18T21:08:55.001Z,10.20
2023-02-18T21:11:28.162Z,10.10
2023-02-18T21:13:58.539Z,10.10
2023-02-18T21:16:29.081Z,10.20
2023-02-18T21:18:57.232Z,10.10
2023-02-18T21:21:25.834Z,10.20
2023-02-18T21:23:55.736Z,10.20
2023-02-18T21:26:28.081Z,10.10
2023-02-18T21:29:05.321Z,10.10
2023-02-18T21:31:42.599Z,10.10
2023-02-18T21:34:16.120Z,10.10
2023-02-18T21:36:44.426Z,10.10
2023-02-18T21:39:13.315Z,10.10
2023-02-18T21:41:42.134Z,10.20
2023-02-18T21:44:10.938Z,10.10
2023-02-18T21:46:40.255Z,10.20
2023-02-18T21:49:12.627Z,10.10
2023-02-18T21:52:05.237Z,10.20
2023-02-18T21:54:47.246Z,10.10
2023-02-18T21:57:22.113Z,10.20
2023-02-18T21:59:50.598Z,10.20
2023-02-18T22:02:28.849Z,10.10
2023-02-18T22:04:58.678Z,10.10
2023-02-18T22:07:31.215Z,10.00
2023-02-18T22:09:59.281Z,10.00
2023-02-18T22:12:27.586Z,10.00
2023-02-18T22:14:55.468Z,10.00
2023-02-18T22:17:23.411Z,10.00
2023-02-18T22:19:51.401Z,10.00
2023-02-18T22:22:19.149Z,9.90
2023-02-18T22:24:47.203Z,9.90
2023-02-18T22:27:15.162Z,10.00
2023-02-18T22:29:43.378Z,10.00
2023-02-18T22:32:11.560Z,10.00
2023-02-18T22:34:39.912Z,10.00
2023-02-18T22:37:08.351Z,10.00
2023-02-18T22:39:36.458Z,10.00
2023-02-18T22:42:05.400Z,10.00
2023-02-18T22:44:33.463Z,10.00
2023-02-18T22:47:01.317Z,10.00
2023-02-18T22:49:29.931Z,10.00
2023-02-18T22:51:57.836Z,10.10
2023-02-18T22:54:25.532Z,10.10
2023-02-18T22:56:54.910Z,10.10
2023-02-18T22:59:22.832Z,10.10
2023-02-18T23:01:53.248Z,10.10
2023-02-18T23:04:22.815Z,10.10
2023-02-18T23:06:51.465Z,10.00
2023-02-18T23:09:26.001Z,10.00
2023-02-18T23:11:58.974Z,10.00
2023-02-18T23:14:29.902Z,10.00
2023-02-18T23:17:13.069Z,10.00
2023-02-18T23:19:54.160Z,10.00
2023-02-18T23:22:37.940Z,10.00
2023-02-18T23:25:08.260Z,10.00
2023-02-18T23:27:36.256Z,10.00
2023-02-18T23:30:04.576Z,10.00
2023-02-18T23:32:32.320Z,10.00
2023-02-18T23:35:00.404Z,10.00
2023-02-18T23:37:46.592Z,10.00
2023-02-18T23:40:14.972Z,10.00
2023-02-18T23:42:42.721Z,10.00
2023-02-18T23:45:10.771Z,10.10
2023-02-18T23:47:38.608Z,10.10
2023-02-18T23:50:07.371Z,10.20
2023-02-18T23:52:35.110Z,10.10
2023-02-18T23:55:03.410Z,10.10
2023-02-18T23:57:33.036Z,10.20
